Time;durP1;ratioP1;P1;durP2;ratioP2;P2;SDS_P1;SDS_P2;PMS_P1;PMS_P2;Temp;Humidity;BMP_temperature;BMP_pressure;BME280_temperature;BME280_humidity;BME280_pressure;Samples;Min_cycle;Max_cycle;Signal;HPM_P1;HPM_P2
2022/12/04 00:09:51;;;;;;;5.15;4.05;;;;;;;15.59;85.47;101722.94;20941593;28;20132;-87
2022/12/04 00:19:52;;;;;;;5.07;3.97;;;;;;;15.60;85.20;101734.53;20940863;28;20052;-88
2022/12/04 00:29:54;;;;;;;4.88;4.03;;;;;;;15.37;85.14;101696.63;20958157;28;20409;-87
2022/12/04 00:39:56;;;;;;;5.47;4.07;;;;;;;15.47;85.11;101707.63;20949290;28;20060;-84
2022/12/04 00:49:58;;;;;;;4.90;4.18;;;;;;;15.18;85.18;101660.28;20957484;28;20053;-88
2022/12/04 00:59:59;;;;;;;4.82;4.32;;;;;;;15.48;85.25;101694.13;20953959;28;20049;-89
2022/12/04 01:10:01;;;;;;;4.57;4.07;;;;;;;15.28;84.82;101665.06;20956594;28;20607;-88
2022/12/04 01:20:03;;;;;;;5.60;4.38;;;;;;;15.58;84.84;101712.31;20955904;28;20050;-88
2022/12/04 01:30:05;;;;;;;4.88;4.28;;;;;;;15.58;84.59;101720.38;20938816;28;20044;-88
2022/12/04 01:40:12;;;;;;;4.68;3.97;;;;;;;15.58;84.64;101721.22;20945318;28;20135;-87
2022/12/04 01:50:13;;;;;;;5.03;4.25;;;;;;;15.58;84.79;101709.63;20970056;28;20064;-88
2022/12/04 02:00:15;;;;;;;5.07;3.97;;;;;;;15.58;84.39;101691.69;20951804;28;20124;-88
2022/12/04 02:10:23;;;;;;;5.75;4.10;;;;;;;15.58;84.38;101693.53;20934565;28;20048;-87
2022/12/04 02:20:38;;;;;;;5.30;4.30;;;;;;;15.39;84.34;101670.56;20952299;28;20057;-88
2022/12/04 02:30:41;;;;;;;4.93;4.18;;;;;;;15.55;84.25;101699.94;20959472;28;20055;-88
2022/12/04 02:41:09;;;;;;;5.07;4.20;;;;;;;15.58;84.02;101704.25;20966198;28;20408;-88
2022/12/04 02:51:13;;;;;;;5.78;4.32;;;;;;;15.58;84.09;101696.22;20946734;28;20087;-88
2022/12/04 03:01:22;;;;;;;5.20;4.28;;;;;;;15.57;83.92;101697.16;20947094;28;20049;-88
2022/12/04 03:11:25;;;;;;;5.50;4.57;;;;;;;15.56;83.96;101688.25;20931996;28;20098;-88
2022/12/04 03:21:29;;;;;;;4.80;4.18;;;;;;;15.49;83.76;101673.50;20945547;28;20551;-87
2022/12/04 03:31:49;;;;;;;4.88;4.10;;;;;;;15.48;83.77;101675.34;20936943;28;20063;-87
2022/12/04 03:41:56;;;;;;;4.80;4.28;;;;;;;15.55;83.73;101678.47;20944311;28;20154;-89
2022/12/04 03:52:06;;;;;;;4.57;4.07;;;;;;;15.42;83.42;101669.53;20960296;28;20078;-87
2022/12/04 04:02:12;;;;;;;4.75;4.07;;;;;;;15.49;83.32;101698.53;20925395;28;20064;-87
2022/12/04 04:12:19;;;;;;;4.60;3.97;;;;;;;15.55;83.13;101683.00;20941485;28;20052;-88
2022/12/04 04:32:51;;;;;;;5.15;3.92;;;;;;;15.54;83.30;101686.63;20935370;28;20075;-88
2022/12/04 04:43:05;;;;;;;4.18;3.70;;;;;;;15.40;83.10;101666.91;20940039;28;20576;-88
2022/12/04 04:53:09;;;;;;;4.40;4.00;;;;;;;15.43;83.08;101679.28;20957321;28;20043;-88
2022/12/04 05:03:10;;;;;;;5.28;4.57;;;;;;;15.54;82.94;101697.38;20939793;28;20393;-88
2022/12/04 05:13:13;;;;;;;5.40;4.22;;;;;;;15.44;83.03;101686.38;20953868;28;20448;-88
2022/12/04 05:23:14;;;;;;;4.85;4.35;;;;;;;15.52;82.69;101701.03;20973149;28;20409;-88
2022/12/04 05:33:15;;;;;;;5.13;4.47;;;;;;;15.44;82.76;101691.75;20963689;28;20677;-88
2022/12/04 05:43:17;;;;;;;5.38;4.35;;;;;;;15.52;82.69;101701.03;20971148;28;20123;-88
2022/12/04 05:53:18;;;;;;;4.82;4.32;;;;;;;15.51;82.45;101693.94;20970478;28;20048;-87
2022/12/04 06:03:20;;;;;;;5.10;4.35;;;;;;;15.53;82.61;101701.88;20969565;28;20083;-87
2022/12/04 06:13:22;;;;;;;5.10;4.35;;;;;;;15.52;82.47;101703.72;20969261;28;20051;-87
2022/12/04 06:23:23;;;;;;;4.97;4.15;;;;;;;15.52;82.55;101706.38;20968403;28;20075;-88
2022/12/04 06:33:25;;;;;;;7.10;5.15;;;;;;;15.52;82.30;101717.13;20898098;28;20056;-87
2022/12/04 06:43:26;;;;;;;4.80;4.07;;;;;;;15.45;82.33;101715.78;20896736;28;20052;-87
2022/12/04 06:53:29;;;;;;;5.10;4.43;;;;;;;15.15;82.08;101638.16;20953320;28;20048;-87
2022/12/04 07:03:30;;;;;;;5.13;4.32;;;;;;;15.22;82.11;101650.22;20940328;28;20056;-88
2022/12/04 07:13:32;;;;;;;5.78;4.72;;;;;;;15.38;81.91;101682.25;20943935;28;20459;-88
2022/12/04 07:23:34;;;;;;;5.80;5.13;;;;;;;15.51;81.92;101704.66;20934805;28;20140;-88
2022/12/04 07:33:36;;;;;;;5.80;4.72;;;;;;;15.52;81.87;101706.38;20922322;28;20049;-87
2022/12/04 07:43:38;;;;;;;5.60;4.90;;;;;;;15.53;82.28;101715.28;20941865;28;20040;-88
2022/12/04 07:53:39;;;;;;;5.27;4.73;;;;;;;15.52;81.95;101719.81;20840310;28;1051472;-87
2022/12/04 08:03:42;;;;;;;6.03;4.80;;;;;;;15.33;81.58;101685.25;20934591;28;20053;-87
2022/12/04 08:13:53;;;;;;;7.22;5.95;;;;;;;15.57;81.61;101715.97;20914266;28;20535;-90
2022/12/04 08:23:56;;;;;;;12.00;6.50;;;;;;;15.63;82.18;101728.97;20907351;28;20068;-94
2022/12/04 08:34:00;;;;;;;11.77;7.15;;;;;;;15.58;84.61;101715.00;20896296;28;20048;-89
2022/12/04 08:44:02;;;;;;;9.77;6.70;;;;;;;15.72;84.45;101731.03;20927199;28;20044;-88
2022/12/04 08:54:06;;;;;;;10.45;7.32;;;;;;;15.22;85.36;101650.22;20921973;28;20119;-86
2022/12/04 09:04:07;;;;;;;8.68;6.97;;;;;;;15.51;85.92;101693.94;20911664;28;20056;-87
2022/12/04 09:14:09;;;;;;;9.75;6.45;;;;;;;15.70;86.06;101730.28;20928708;28;20060;-86
2022/12/04 09:24:10;;;;;;;10.02;7.25;;;;;;;15.68;86.03;101736.69;20952343;28;20044;-87
2022/12/04 09:34:12;;;;;;;8.15;6.10;;;;;;;15.67;85.94;101733.16;20905692;28;20240;-86
2022/12/04 09:44:27;;;;;;;7.93;6.75;;;;;;;15.66;85.62;101739.50;20934452;28;20053;-87
2022/12/04 09:54:33;;;;;;;9.47;6.97;;;;;;;15.63;85.38;101735.19;20897483;28;20121;-86
2022/12/04 10:04:35;;;;;;;8.20;6.88;;;;;;;15.61;85.35;101729.06;20922948;28;20113;-93
2022/12/04 10:15:09;;;;;;;8.95;6.70;;;;;;;15.64;85.02;101730.69;20928407;28;20094;-90
2022/12/04 10:25:14;;;;;;;7.75;6.18;;;;;;;15.64;84.92;101714.59;20933839;28;20423;-90
2022/12/04 10:35:26;;;;;;;8.38;6.85;;;;;;;15.33;84.65;101666.50;20909146;28;20041;-89
2022/12/04 10:45:27;;;;;;;7.22;6.22;;;;;;;15.43;84.22;101682.81;20934049;28;20468;-87
2022/12/04 10:55:33;;;;;;;7.35;6.20;;;;;;;15.31;84.54;101655.00;20940860;28;20063;-87
2022/12/04 11:05:54;;;;;;;8.05;6.20;;;;;;;15.36;84.11;101654.69;20955936;28;20374;-87
2022/12/04 11:15:56;;;;;;;8.05;6.22;;;;;;;15.61;84.09;101687.94;20953238;28;20044;-87
2022/12/04 11:25:58;;;;;;;6.20;5.38;;;;;;;15.43;84.00;101668.56;20958665;28;20056;-86
2022/12/04 11:36:22;;;;;;;8.07;5.90;;;;;;;15.32;83.92;101631.69;20972442;28;20048;-87
2022/12/04 11:46:27;;;;;;;7.00;5.80;;;;;;;15.61;83.61;101679.91;20937674;28;20634;-87
2022/12/04 11:56:41;;;;;;;6.57;5.53;;;;;;;15.61;83.82;101672.69;20942065;28;20135;-86
2022/12/04 12:07:20;;;;;;;6.25;5.38;;;;;;;15.61;83.34;101655.75;20973368;28;20055;-86
2022/12/04 12:17:31;;;;;;;6.72;5.40;;;;;;;15.47;83.36;101643.25;20994860;28;20052;-86
2022/12/04 12:28:14;;;;;;;6.35;5.13;;;;;;;15.60;83.22;101665.59;20979853;28;20448;-86
2022/12/04 12:38:25;;;;;;;6.93;5.57;;;;;;;15.60;83.17;101649.50;20959702;28;20446;-87
2022/12/04 12:48:59;;;;;;;6.35;5.28;;;;;;;15.61;82.97;101642.31;20942116;28;20048;-86
2022/12/04 12:59:03;;;;;;;5.78;5.00;;;;;;;15.30;82.76;101585.34;20968516;28;20044;-86
2022/12/04 13:09:26;;;;;;;6.07;5.05;;;;;;;15.60;82.78;101627.19;20929090;28;20083;-85
2022/12/04 13:19:34;;;;;;;5.40;4.03;;;;;;;15.59;82.69;101606.69;20983435;28;20409;-85
2022/12/04 13:29:58;;;;;;;5.55;4.85;;;;;;;15.22;82.80;101559.88;20950749;28;20390;-86
2022/12/04 13:40:43;;;;;;;5.80;4.68;;;;;;;15.59;82.48;101625.47;20943250;28;20095;-86
2022/12/04 13:50:45;;;;;;;6.10;4.78;;;;;;;15.61;82.40;101628.91;20927562;28;20503;-86
2022/12/04 14:00:46;;;;;;;5.38;4.35;;;;;;;15.60;82.34;101616.44;20948946;28;20405;-87
2022/12/04 14:11:00;;;;;;;5.13;4.57;;;;;;;15.67;82.71;101604.31;20972886;28;20044;-86
2022/12/04 14:21:04;;;;;;;5.10;4.03;;;;;;;15.73;82.99;101619.16;20947529;28;20565;-86
2022/12/04 14:31:18;;;;;;;4.90;4.40;;;;;;;15.03;82.94;101484.31;20924961;28;20045;-87
2022/12/04 14:41:25;;;;;;;5.18;4.00;;;;;;;15.81;83.24;101590.81;20912869;28;20505;-86
2022/12/04 14:51:35;;;;;;;4.93;4.05;;;;;;;15.86;83.27;101592.31;20929779;28;20063;-87
2022/12/04 15:01:37;;;;;;;4.88;4.18;;;;;;;15.88;83.28;101601.16;20911503;28;20070;-87
2022/12/04 15:22:22;;;;;;;4.53;4.03;;;;;;;15.68;83.08;101594.44;20972584;28;20079;-88
2022/12/04 15:32:24;;;;;;;6.90;4.65;;;;;;;15.93;81.40;101623.22;20936160;28;20512;-88
2022/12/04 15:42:29;;;;;;;5.32;4.05;;;;;;;15.93;81.73;101634.78;20922544;28;20060;-88
2022/12/04 15:52:30;;;;;;;4.53;3.97;;;;;;;15.87;82.69;101637.88;20937501;28;20052;-88
2022/12/04 16:02:35;;;;;;;5.85;4.63;;;;;;;15.83;83.44;101656.97;20926746;28;20041;-87
2022/12/04 16:12:36;;;;;;;5.57;4.93;;;;;;;15.79;84.37;101654.50;20922405;28;20048;-85
2022/12/04 16:22:39;;;;;;;5.20;4.65;;;;;;;15.78;85.30;101654.59;20893392;28;20056;-87
2022/12/04 16:32:41;;;;;;;5.70;4.70;;;;;;;15.74;85.74;101648.56;20894420;28;20049;-86
2022/12/04 16:42:43;;;;;;;5.78;4.57;;;;;;;15.72;86.40;101646.97;20891471;28;20064;-88
2022/12/04 16:52:44;;;;;;;5.53;4.20;;;;;;;15.71;86.71;101642.56;20880166;28;20053;-86
2022/12/04 17:02:46;;;;;;;5.72;4.60;;;;;;;15.63;87.27;101618.91;20875997;28;20098;-86
2022/12/04 17:12:47;;;;;;;5.57;4.38;;;;;;;15.58;87.85;101605.78;20830859;28;20039;-85
2022/12/04 17:22:49;;;;;;;6.25;4.15;;;;;;;15.69;88.33;101625.69;20857770;28;20506;-85
2022/12/04 17:32:50;;;;;;;5.45;4.20;;;;;;;15.60;88.57;101632.56;20882457;28;20044;-86
2022/12/04 17:42:52;;;;;;;5.32;4.20;;;;;;;15.68;88.98;101648.13;20880361;28;20116;-85
2022/12/04 17:52:53;;;;;;;5.05;4.15;;;;;;;15.46;89.29;101620.06;20855142;28;20049;-84
2022/12/04 18:02:55;;;;;;;5.07;4.05;;;;;;;15.67;89.50;101655.31;20905696;28;20817;-85
2022/12/04 18:12:56;;;;;;;4.80;3.72;;;;;;;15.69;89.38;101663.25;20906923;28;20154;-83
2022/12/04 18:22:58;;;;;;;5.40;4.40;;;;;;;15.59;89.44;101646.94;21016286;28;20048;-95
2022/12/04 18:32:59;;;;;;;5.15;4.20;;;;;;;15.37;89.81;101610.78;20959021;28;20052;-89
2022/12/04 18:43:01;;;;;;;5.22;4.45;;;;;;;15.57;89.82;101659.59;20961871;28;20056;-86
2022/12/04 18:53:03;;;;;;;6.20;4.85;;;;;;;15.67;90.20;101679.47;20962056;28;20459;-87
2022/12/04 19:03:05;;;;;;;5.85;4.10;;;;;;;15.56;90.29;101652.50;20963264;28;20049;-86
2022/12/04 19:13:07;;;;;;;4.90;3.78;;;;;;;15.67;90.54;101679.47;20938294;28;20110;-86
2022/12/04 19:23:09;;;;;;;5.72;4.30;;;;;;;15.35;90.74;101628.81;20962325;28;20094;-87
2022/12/04 19:33:11;;;;;;;6.13;4.07;;;;;;;15.57;90.79;101656.91;20962113;28;20048;-86
2022/12/04 19:43:12;;;;;;;4.57;3.60;;;;;;;15.66;90.68;101667.03;20961188;28;20053;-86
2022/12/04 19:53:14;;;;;;;5.25;4.00;;;;;;;15.56;90.80;101663.25;20927025;28;20131;-86
2022/12/04 20:03:15;;;;;;;5.75;3.97;;;;;;;15.65;91.04;101673.34;20956097;28;20413;-83
2022/12/04 20:13:17;;;;;;;5.20;3.80;;;;;;;15.66;91.20;101681.28;20937804;28;20048;-86
2022/12/04 20:23:18;;;;;;;4.75;3.95;;;;;;;15.64;91.13;101660.91;20958610;28;20036;-86
2022/12/04 20:33:20;;;;;;;4.63;3.75;;;;;;;15.65;91.14;101658.09;20957591;28;20052;-86
2022/12/04 20:43:21;;;;;;;4.55;3.75;;;;;;;15.65;91.17;101657.25;20957082;28;20040;-86
2022/12/04 20:53:23;;;;;;;4.22;3.67;;;;;;;15.65;91.38;101657.25;20939168;28;20056;-85
2022/12/04 21:03:26;;;;;;;4.70;3.72;;;;;;;15.65;91.11;101649.19;20930551;28;20052;-86
2022/12/04 21:23:48;;;;;;;4.18;3.55;;;;;;;15.64;91.27;101634.91;20940921;28;20056;-86
2022/12/04 21:33:49;;;;;;;4.15;3.58;;;;;;;15.65;91.34;101643.84;20954571;28;20389;-86
2022/12/04 21:43:50;;;;;;;4.47;3.22;;;;;;;15.46;90.93;101612.84;20937137;28;20052;-86
2022/12/04 21:53:53;;;;;;;4.45;3.45;;;;;;;15.45;91.12;101607.59;20966717;28;20086;-86
2022/12/04 22:03:55;;;;;;;4.25;3.38;;;;;;;15.64;91.04;101634.91;20961219;28;20041;-86
2022/12/04 22:13:57;;;;;;;4.57;3.47;;;;;;;15.01;90.82;101543.41;20951279;28;20079;-86
2022/12/04 22:24:00;;;;;;;4.75;3.42;;;;;;;15.65;91.12;101643.84;20967663;28;20429;-86
2022/12/04 22:34:01;;;;;;;4.35;3.25;;;;;;;15.64;91.01;101628.69;20932274;28;20078;-86
2022/12/04 22:44:03;;;;;;;4.07;3.58;;;;;;;15.64;90.93;101628.69;20949073;28;20048;-86
2022/12/04 22:54:06;;;;;;;3.90;3.30;;;;;;;15.65;90.95;101625.03;20948166;28;20052;-86
2022/12/04 23:04:08;;;;;;;4.20;3.55;;;;;;;15.64;90.58;101634.06;20939161;28;20451;-86
2022/12/04 23:14:13;;;;;;;4.03;3.45;;;;;;;15.55;90.71;101607.84;20964250;28;20404;-86
2022/12/04 23:24:15;;;;;;;4.00;3.10;;;;;;;15.65;90.73;101619.69;20929487;28;20052;-86
2022/12/04 23:34:16;;;;;;;4.30;3.10;;;;;;;15.29;90.59;101560.34;20945043;28;20051;-86
2022/12/04 23:44:18;;;;;;;4.25;3.47;;;;;;;15.52;90.46;101582.94;20961580;28;20861;-86
2022/12/04 23:54:19;;;;;;;4.40;3.65;;;;;;;15.15;90.47;101539.81;20960608;28;20048;-85
